sensor_id;sensor_type;location;lat;lon;timestamp;temperature;humidity
971;DHT22;28939;45.540;-122.632;2022-08-02T00:01:23;32.50;71.20
971;DHT22;28939;45.540;-122.632;2022-08-02T00:03:54;32.30;70.70
971;DHT22;28939;45.540;-122.632;2022-08-02T00:06:25;32.30;71.70
971;DHT22;28939;45.540;-122.632;2022-08-02T00:08:56;32.40;72.50
971;DHT22;28939;45.540;-122.632;2022-08-02T00:11:28;32.40;71.60
971;DHT22;28939;45.540;-122.632;2022-08-02T00:13:59;32.30;70.90
971;DHT22;28939;45.540;-122.632;2022-08-02T00:16:30;32.30;70.90
971;DHT22;28939;45.540;-122.632;2022-08-02T00:19:05;32.00;71.90
971;DHT22;28939;45.540;-122.632;2022-08-02T00:21:36;32.00;72.20
971;DHT22;28939;45.540;-122.632;2022-08-02T00:24:07;32.10;71.30
971;DHT22;28939;45.540;-122.632;2022-08-02T00:26:59;32.10;71.60
971;DHT22;28939;45.540;-122.632;2022-08-02T00:29:36;32.20;71.80
971;DHT22;28939;45.540;-122.632;2022-08-02T00:32:20;32.10;71.10
971;DHT22;28939;45.540;-122.632;2022-08-02T00:34:51;32.20;70.90
971;DHT22;28939;45.540;-122.632;2022-08-02T00:37:22;32.30;69.90
971;DHT22;28939;45.540;-122.632;2022-08-02T00:39:53;32.20;71.50
971;DHT22;28939;45.540;-122.632;2022-08-02T00:42:27;32.30;72.20
971;DHT22;28939;45.540;-122.632;2022-08-02T00:44:58;32.30;71.20
971;DHT22;28939;45.540;-122.632;2022-08-02T00:47:29;32.50;69.40
971;DHT22;28939;45.540;-122.632;2022-08-02T00:50:00;32.60;68.40
971;DHT22;28939;45.540;-122.632;2022-08-02T00:52:31;32.60;67.90
971;DHT22;28939;45.540;-122.632;2022-08-02T00:55:02;32.40;67.50
971;DHT22;28939;45.540;-122.632;2022-08-02T00:57:35;32.30;69.20
971;DHT22;28939;45.540;-122.632;2022-08-02T01:00:07;32.30;68.00
971;DHT22;28939;45.540;-122.632;2022-08-02T01:02:38;32.30;67.40
971;DHT22;28939;45.540;-122.632;2022-08-02T01:05:09;32.00;70.20
971;DHT22;28939;45.540;-122.632;2022-08-02T01:07:40;32.10;70.80
971;DHT22;28939;45.540;-122.632;2022-08-02T01:10:11;32.10;70.00
971;DHT22;28939;45.540;-122.632;2022-08-02T01:12:43;32.00;70.90
971;DHT22;28939;45.540;-122.632;2022-08-02T01:15:16;32.10;71.50
971;DHT22;28939;45.540;-122.632;2022-08-02T01:17:51;32.00;72.00
971;DHT22;28939;45.540;-122.632;2022-08-02T01:23:46;31.90;73.80
971;DHT22;28939;45.540;-122.632;2022-08-02T01:26:35;31.60;74.30
971;DHT22;28939;45.540;-122.632;2022-08-02T01:29:14;31.60;75.30
971;DHT22;28939;45.540;-122.632;2022-08-02T01:31:49;31.50;75.20
971;DHT22;28939;45.540;-122.632;2022-08-02T01:34:31;31.30;75.80
971;DHT22;28939;45.540;-122.632;2022-08-02T01:37:06;31.20;75.50
971;DHT22;28939;45.540;-122.632;2022-08-02T01:39:40;31.10;75.70
971;DHT22;28939;45.540;-122.632;2022-08-02T01:42:13;31.10;76.10
971;DHT22;28939;45.540;-122.632;2022-08-02T01:44:49;31.00;76.20
971;DHT22;28939;45.540;-122.632;2022-08-02T01:47:23;31.00;75.40
971;DHT22;28939;45.540;-122.632;2022-08-02T01:49:57;30.80;75.10
971;DHT22;28939;45.540;-122.632;2022-08-02T01:52:31;30.70;76.00
971;DHT22;28939;45.540;-122.632;2022-08-02T01:55:04;30.60;75.20
971;DHT22;28939;45.540;-122.632;2022-08-02T01:57:47;30.50;74.90
971;DHT22;28939;45.540;-122.632;2022-08-02T02:00:23;30.30;75.90
971;DHT22;28939;45.540;-122.632;2022-08-02T02:02:56;30.30;75.00
971;DHT22;28939;45.540;-122.632;2022-08-02T02:05:30;30.20;76.40
971;DHT22;28939;45.540;-122.632;2022-08-02T02:08:02;30.10;76.00
971;DHT22;28939;45.540;-122.632;2022-08-02T02:10:37;30.10;75.90
971;DHT22;28939;45.540;-122.632;2022-08-02T02:13:13;30.00;77.00
971;DHT22;28939;45.540;-122.632;2022-08-02T02:15:48;29.90;77.60
971;DHT22;28939;45.540;-122.632;2022-08-02T02:18:23;29.90;78.00
971;DHT22;28939;45.540;-122.632;2022-08-02T02:20:55;29.80;78.40
971;DHT22;28939;45.540;-122.632;2022-08-02T02:23:26;29.70;79.10
971;DHT22;28939;45.540;-122.632;2022-08-02T02:26:03;29.50;78.90
971;DHT22;28939;45.540;-122.632;2022-08-02T02:28:38;29.40;78.70
971;DHT22;28939;45.540;-122.632;2022-08-02T02:31:14;29.20;79.30
971;DHT22;28939;45.540;-122.632;2022-08-02T02:33:48;29.20;78.50
971;DHT22;28939;45.540;-122.632;2022-08-02T02:36:20;29.10;77.60
971;DHT22;28939;45.540;-122.632;2022-08-02T02:38:52;29.00;78.10
971;DHT22;28939;45.540;-122.632;2022-08-02T02:41:24;29.00;79.10
971;DHT22;28939;45.540;-122.632;2022-08-02T02:43:59;29.00;82.30
971;DHT22;28939;45.540;-122.632;2022-08-02T02:46:33;28.90;82.50
971;DHT22;28939;45.540;-122.632;2022-08-02T02:49:05;28.80;83.80
971;DHT22;28939;45.540;-122.632;2022-08-02T02:51:39;28.60;84.80
971;DHT22;28939;45.540;-122.632;2022-08-02T02:54:11;28.50;85.50
971;DHT22;28939;45.540;-122.632;2022-08-02T02:57:02;28.50;86.60
971;DHT22;28939;45.540;-122.632;2022-08-02T02:59:34;28.20;87.80
971;DHT22;28939;45.540;-122.632;2022-08-02T03:02:18;28.10;88.50
971;DHT22;28939;45.540;-122.632;2022-08-02T03:04:49;28.00;89.30
971;DHT22;28939;45.540;-122.632;2022-08-02T03:07:24;27.90;89.90
971;DHT22;28939;45.540;-122.632;2022-08-02T03:09:56;27.70;90.10
971;DHT22;28939;45.540;-122.632;2022-08-02T03:12:28;27.70;90.40
971;DHT22;28939;45.540;-122.632;2022-08-02T03:15:00;27.50;90.70
971;DHT22;28939;45.540;-122.632;2022-08-02T03:17:40;27.40;91.00
971;DHT22;28939;45.540;-122.632;2022-08-02T03:20:13;27.40;90.90
971;DHT22;28939;45.540;-122.632;2022-08-02T03:22:45;27.40;90.80
971;DHT22;28939;45.540;-122.632;2022-08-02T03:25:16;27.40;90.70
971;DHT22;28939;45.540;-122.632;2022-08-02T03:27:47;27.30;90.70
971;DHT22;28939;45.540;-122.632;2022-08-02T03:30:18;27.20;91.00
971;DHT22;28939;45.540;-122.632;2022-08-02T03:32:53;26.90;91.30
971;DHT22;28939;45.540;-122.632;2022-08-02T03:35:24;26.70;91.80
971;DHT22;28939;45.540;-122.632;2022-08-02T03:37:55;26.50;91.80
971;DHT22;28939;45.540;-122.632;2022-08-02T03:40:27;26.40;92.60
971;DHT22;28939;45.540;-122.632;2022-08-02T03:43:01;26.20;93.00
971;DHT22;28939;45.540;-122.632;2022-08-02T03:45:32;26.20;92.80
971;DHT22;28939;45.540;-122.632;2022-08-02T03:48:06;26.20;93.00
971;DHT22;28939;45.540;-122.632;2022-08-02T03:50:57;26.00;93.10
971;DHT22;28939;45.540;-122.632;2022-08-02T03:53:29;25.90;92.60
971;DHT22;28939;45.540;-122.632;2022-08-02T03:56:02;25.70;92.70
971;DHT22;28939;45.540;-122.632;2022-08-02T03:58:33;25.70;92.70
971;DHT22;28939;45.540;-122.632;2022-08-02T04:01:04;25.60;92.80
971;DHT22;28939;45.540;-122.632;2022-08-02T04:03:36;25.50;92.60
971;DHT22;28939;45.540;-122.632;2022-08-02T04:06:07;25.40;92.50
971;DHT22;28939;45.540;-122.632;2022-08-02T04:08:41;25.30;92.50
971;DHT22;28939;45.540;-122.632;2022-08-02T04:11:12;25.10;93.00
971;DHT22;28939;45.540;-122.632;2022-08-02T04:13:56;25.00;93.40
971;DHT22;28939;45.540;-122.632;2022-08-02T04:16:37;25.00;93.20
971;DHT22;28939;45.540;-122.632;2022-08-02T04:19:14;25.00;93.10
971;DHT22;28939;45.540;-122.632;2022-08-02T04:21:46;24.80;93.40
971;DHT22;28939;45.540;-122.632;2022-08-02T04:24:24;24.80;93.20
971;DHT22;28939;45.540;-122.632;2022-08-02T04:26:57;24.70;93.70
971;DHT22;28939;45.540;-122.632;2022-08-02T04:29:48;24.60;93.70
971;DHT22;28939;45.540;-122.632;2022-08-02T04:32:20;24.60;93.70
971;DHT22;28939;45.540;-122.632;2022-08-02T04:34:53;24.50;93.80
971;DHT22;28939;45.540;-122.632;2022-08-02T04:37:44;24.50;93.80
971;DHT22;28939;45.540;-122.632;2022-08-02T04:40:36;24.40;94.20
971;DHT22;28939;45.540;-122.632;2022-08-02T04:43:07;24.20;94.30
971;DHT22;28939;45.540;-122.632;2022-08-02T04:45:37;24.20;94.80
971;DHT22;28939;45.540;-122.632;2022-08-02T04:48:09;24.10;94.90
971;DHT22;28939;45.540;-122.632;2022-08-02T04:50:42;24.00;95.10
971;DHT22;28939;45.540;-122.632;2022-08-02T04:53:13;23.90;95.60
971;DHT22;28939;45.540;-122.632;2022-08-02T04:55:44;23.90;95.90
971;DHT22;28939;45.540;-122.632;2022-08-02T04:58:14;23.80;96.50
971;DHT22;28939;45.540;-122.632;2022-08-02T05:01:05;23.80;96.60
971;DHT22;28939;45.540;-122.632;2022-08-02T05:03:36;23.70;97.10
971;DHT22;28939;45.540;-122.632;2022-08-02T05:06:08;23.70;97.40
971;DHT22;28939;45.540;-122.632;2022-08-02T05:08:46;23.70;97.20
971;DHT22;28939;45.540;-122.632;2022-08-02T05:11:20;23.60;97.70
971;DHT22;28939;45.540;-122.632;2022-08-02T05:14:03;23.50;97.80
971;DHT22;28939;45.540;-122.632;2022-08-02T05:16:33;23.40;98.30
971;DHT22;28939;45.540;-122.632;2022-08-02T05:19:04;23.30;98.80
971;DHT22;28939;45.540;-122.632;2022-08-02T05:21:37;23.20;99.30
971;DHT22;28939;45.540;-122.632;2022-08-02T05:24:08;23.20;99.90
971;DHT22;28939;45.540;-122.632;2022-08-02T05:26:39;23.20;99.90
971;DHT22;28939;45.540;-122.632;2022-08-02T05:29:10;23.10;99.90
971;DHT22;28939;45.540;-122.632;2022-08-02T05:31:40;23.10;99.90
971;DHT22;28939;45.540;-122.632;2022-08-02T05:34:13;23.00;99.90
971;DHT22;28939;45.540;-122.632;2022-08-02T05:36:45;23.00;99.90
971;DHT22;28939;45.540;-122.632;2022-08-02T05:39:17;23.00;99.90
971;DHT22;28939;45.540;-122.632;2022-08-02T05:41:48;22.90;99.90
971;DHT22;28939;45.540;-122.632;2022-08-02T05:44:19;22.80;99.90
971;DHT22;28939;45.540;-122.632;2022-08-02T05:46:49;22.80;99.90
971;DHT22;28939;45.540;-122.632;2022-08-02T05:49:21;22.70;99.90
971;DHT22;28939;45.540;-122.632;2022-08-02T05:52:01;22.70;99.90
971;DHT22;28939;45.540;-122.632;2022-08-02T05:54:38;22.70;99.90
971;DHT22;28939;45.540;-122.632;2022-08-02T05:57:18;22.60;99.90
971;DHT22;28939;45.540;-122.632;2022-08-02T06:00:05;22.60;99.90
971;DHT22;28939;45.540;-122.632;2022-08-02T06:02:48;22.60;99.90
971;DHT22;28939;45.540;-122.632;2022-08-02T06:05:20;22.50;99.90
971;DHT22;28939;45.540;-122.632;2022-08-02T06:07:54;22.50;99.90
971;DHT22;28939;45.540;-122.632;2022-08-02T06:10:28;22.50;99.90
971;DHT22;28939;45.540;-122.632;2022-08-02T06:13:07;22.40;99.90
971;DHT22;28939;45.540;-122.632;2022-08-02T06:15:41;22.30;99.90
971;DHT22;28939;45.540;-122.632;2022-08-02T06:18:20;22.20;99.90
971;DHT22;28939;45.540;-122.632;2022-08-02T06:20:56;22.10;99.90
971;DHT22;28939;45.540;-122.632;2022-08-02T06:23:50;22.00;99.90
971;DHT22;28939;45.540;-122.632;2022-08-02T06:26:27;21.90;99.90
971;DHT22;28939;45.540;-122.632;2022-08-02T06:28:58;21.90;99.90
971;DHT22;28939;45.540;-122.632;2022-08-02T06:31:29;21.90;99.90
971;DHT22;28939;45.540;-122.632;2022-08-02T06:33:59;21.80;99.90
971;DHT22;28939;45.540;-122.632;2022-08-02T06:36:34;21.80;99.90
971;DHT22;28939;45.540;-122.632;2022-08-02T06:39:15;21.80;99.90
971;DHT22;28939;45.540;-122.632;2022-08-02T06:41:49;21.70;99.90
971;DHT22;28939;45.540;-122.632;2022-08-02T06:44:21;21.50;99.90
971;DHT22;28939;45.540;-122.632;2022-08-02T06:47:12;21.50;99.90
971;DHT22;28939;45.540;-122.632;2022-08-02T06:49:43;21.40;99.90
971;DHT22;28939;45.540;-122.632;2022-08-02T06:52:23;21.40;99.90
971;DHT22;28939;45.540;-122.632;2022-08-02T06:54:59;21.40;99.90
971;DHT22;28939;45.540;-122.632;2022-08-02T06:57:31;21.30;99.90
971;DHT22;28939;45.540;-122.632;2022-08-02T07:00:03;21.30;99.90
971;DHT22;28939;45.540;-122.632;2022-08-02T07:02:36;21.30;99.90
971;DHT22;28939;45.540;-122.632;2022-08-02T07:05:09;21.20;99.90
971;DHT22;28939;45.540;-122.632;2022-08-02T07:07:39;21.10;99.90
971;DHT22;28939;45.540;-122.632;2022-08-02T07:10:12;21.10;99.90
971;DHT22;28939;45.540;-122.632;2022-08-02T07:12:43;21.10;99.90
971;DHT22;28939;45.540;-122.632;2022-08-02T07:15:13;21.00;99.90
971;DHT22;28939;45.540;-122.632;2022-08-02T07:17:44;20.90;99.90
971;DHT22;28939;45.540;-122.632;2022-08-02T07:20:15;20.90;99.90
971;DHT22;28939;45.540;-122.632;2022-08-02T07:22:46;20.90;99.90
971;DHT22;28939;45.540;-122.632;2022-08-02T07:25:19;20.80;99.90
971;DHT22;28939;45.540;-122.632;2022-08-02T07:27:49;20.70;99.90
971;DHT22;28939;45.540;-122.632;2022-08-02T07:30:23;20.70;99.90
971;DHT22;28939;45.540;-122.632;2022-08-02T07:32:54;20.50;99.90
971;DHT22;28939;45.540;-122.632;2022-08-02T07:35:25;20.50;99.90
971;DHT22;28939;45.540;-122.632;2022-08-02T07:37:58;20.40;99.90
971;DHT22;28939;45.540;-122.632;2022-08-02T07:40:31;20.40;99.90
971;DHT22;28939;45.540;-122.632;2022-08-02T07:43:01;20.30;99.90
971;DHT22;28939;45.540;-122.632;2022-08-02T07:45:33;20.30;99.90
971;DHT22;28939;45.540;-122.632;2022-08-02T07:48:23;20.30;99.90
971;DHT22;28939;45.540;-122.632;2022-08-02T07:50:54;20.20;99.90
971;DHT22;28939;45.540;-122.632;2022-08-02T07:53:25;20.10;99.90
971;DHT22;28939;45.540;-122.632;2022-08-02T07:56:17;20.10;99.90
971;DHT22;28939;45.540;-122.632;2022-08-02T07:58:48;20.00;99.90
971;DHT22;28939;45.540;-122.632;2022-08-02T08:01:19;20.00;99.90
971;DHT22;28939;45.540;-122.632;2022-08-02T08:03:50;19.90;99.90
971;DHT22;28939;45.540;-122.632;2022-08-02T08:06:21;19.80;99.90
971;DHT22;28939;45.540;-122.632;2022-08-02T08:08:55;19.80;99.90
971;DHT22;28939;45.540;-122.632;2022-08-02T08:11:28;19.80;99.90
971;DHT22;28939;45.540;-122.632;2022-08-02T08:13:59;19.70;99.90
971;DHT22;28939;45.540;-122.632;2022-08-02T08:16:29;19.70;99.90
971;DHT22;28939;45.540;-122.632;2022-08-02T08:19:00;19.70;99.90
971;DHT22;28939;45.540;-122.632;2022-08-02T08:21:31;19.60;99.90
971;DHT22;28939;45.540;-122.632;2022-08-02T08:24:03;19.70;99.90
971;DHT22;28939;45.540;-122.632;2022-08-02T08:26:36;19.60;99.90
971;DHT22;28939;45.540;-122.632;2022-08-02T08:29:07;19.60;99.90
971;DHT22;28939;45.540;-122.632;2022-08-02T08:31:38;19.60;99.90
971;DHT22;28939;45.540;-122.632;2022-08-02T08:34:09;19.40;99.90
971;DHT22;28939;45.540;-122.632;2022-08-02T08:36:40;19.40;99.90
971;DHT22;28939;45.540;-122.632;2022-08-02T08:39:10;19.40;99.90
971;DHT22;28939;45.540;-122.632;2022-08-02T08:41:43;19.40;99.90
971;DHT22;28939;45.540;-122.632;2022-08-02T08:44:14;19.40;99.90
971;DHT22;28939;45.540;-122.632;2022-08-02T08:46:47;19.30;99.90
971;DHT22;28939;45.540;-122.632;2022-08-02T08:49:22;19.20;99.90
971;DHT22;28939;45.540;-122.632;2022-08-02T08:51:56;19.20;99.90
971;DHT22;28939;45.540;-122.632;2022-08-02T08:54:31;19.10;99.90
971;DHT22;28939;45.540;-122.632;2022-08-02T08:57:06;19.10;99.90
971;DHT22;28939;45.540;-122.632;2022-08-02T08:59:40;19.00;99.90
971;DHT22;28939;45.540;-122.632;2022-08-02T09:02:12;19.00;99.90
971;DHT22;28939;45.540;-122.632;2022-08-02T09:04:50;19.00;99.90
971;DHT22;28939;45.540;-122.632;2022-08-02T09:07:22;18.90;99.90
971;DHT22;28939;45.540;-122.632;2022-08-02T09:09:52;18.90;99.90
971;DHT22;28939;45.540;-122.632;2022-08-02T09:12:25;18.80;99.90
971;DHT22;28939;45.540;-122.632;2022-08-02T09:14:56;18.70;99.90
971;DHT22;28939;45.540;-122.632;2022-08-02T09:17:26;18.70;99.90
971;DHT22;28939;45.540;-122.632;2022-08-02T09:20:15;18.70;99.90
971;DHT22;28939;45.540;-122.632;2022-08-02T09:23:05;18.80;99.90
971;DHT22;28939;45.540;-122.632;2022-08-02T09:25:36;18.70;99.90
971;DHT22;28939;45.540;-122.632;2022-08-02T09:28:28;18.70;99.90
971;DHT22;28939;45.540;-122.632;2022-08-02T09:31:07;18.60;99.90
971;DHT22;28939;45.540;-122.632;2022-08-02T09:33:39;18.60;99.90
971;DHT22;28939;45.540;-122.632;2022-08-02T09:36:11;18.60;99.90
971;DHT22;28939;45.540;-122.632;2022-08-02T09:38:56;18.50;99.90
971;DHT22;28939;45.540;-122.632;2022-08-02T09:41:28;18.50;99.90
971;DHT22;28939;45.540;-122.632;2022-08-02T09:44:02;18.60;99.90
971;DHT22;28939;45.540;-122.632;2022-08-02T09:46:35;18.50;99.90
971;DHT22;28939;45.540;-122.632;2022-08-02T09:49:08;18.40;99.90
971;DHT22;28939;45.540;-122.632;2022-08-02T09:51:48;18.40;99.90
971;DHT22;28939;45.540;-122.632;2022-08-02T09:54:20;18.40;99.90
971;DHT22;28939;45.540;-122.632;2022-08-02T09:56:53;18.30;99.90
971;DHT22;28939;45.540;-122.632;2022-08-02T09:59:27;18.40;99.90
971;DHT22;28939;45.540;-122.632;2022-08-02T10:01:59;18.40;99.90
971;DHT22;28939;45.540;-122.632;2022-08-02T10:04:31;18.30;99.90
971;DHT22;28939;45.540;-122.632;2022-08-02T10:07:21;18.30;99.90
971;DHT22;28939;45.540;-122.632;2022-08-02T10:09:52;18.30;99.90
971;DHT22;28939;45.540;-122.632;2022-08-02T10:12:22;18.30;99.90
971;DHT22;28939;45.540;-122.632;2022-08-02T10:14:55;18.30;99.90
971;DHT22;28939;45.540;-122.632;2022-08-02T10:17:26;18.30;99.90
971;DHT22;28939;45.540;-122.632;2022-08-02T10:19:57;18.20;99.90
971;DHT22;28939;45.540;-122.632;2022-08-02T10:22:33;18.20;99.90
971;DHT22;28939;45.540;-122.632;2022-08-02T10:25:04;18.20;99.90
971;DHT22;28939;45.540;-122.632;2022-08-02T10:27:36;18.20;99.90
971;DHT22;28939;45.540;-122.632;2022-08-02T10:30:29;18.20;99.90
971;DHT22;28939;45.540;-122.632;2022-08-02T10:33:02;18.10;99.90
971;DHT22;28939;45.540;-122.632;2022-08-02T10:35:36;18.10;99.90
971;DHT22;28939;45.540;-122.632;2022-08-02T10:38:09;18.10;99.90
971;DHT22;28939;45.540;-122.632;2022-08-02T10:40:44;18.10;99.90
971;DHT22;28939;45.540;-122.632;2022-08-02T10:46:29;18.10;99.90
971;DHT22;28939;45.540;-122.632;2022-08-02T10:49:09;18.10;99.90
971;DHT22;28939;45.540;-122.632;2022-08-02T10:52:07;18.10;99.90
971;DHT22;28939;45.540;-122.632;2022-08-02T10:54:40;18.10;99.90
971;DHT22;28939;45.540;-122.632;2022-08-02T10:57:17;18.10;99.90
971;DHT22;28939;45.540;-122.632;2022-08-02T10:59:49;18.10;99.90
971;DHT22;28939;45.540;-122.632;2022-08-02T11:02:39;18.10;99.90
971;DHT22;28939;45.540;-122.632;2022-08-02T11:05:13;18.10;99.90
971;DHT22;28939;45.540;-122.632;2022-08-02T11:07:46;18.00;99.90
971;DHT22;28939;45.540;-122.632;2022-08-02T11:10:35;18.00;99.90
971;DHT22;28939;45.540;-122.632;2022-08-02T11:13:10;18.00;99.90
971;DHT22;28939;45.540;-122.632;2022-08-02T11:15:53;17.90;99.90
971;DHT22;28939;45.540;-122.632;2022-08-02T11:21:30;18.00;99.90
971;DHT22;28939;45.540;-122.632;2022-08-02T11:24:23;18.00;99.90
971;DHT22;28939;45.540;-122.632;2022-08-02T11:26:56;18.00;99.90
971;DHT22;28939;45.540;-122.632;2022-08-02T11:29:37;18.00;99.90
971;DHT22;28939;45.540;-122.632;2022-08-02T11:32:14;18.00;99.90
971;DHT22;28939;45.540;-122.632;2022-08-02T11:34:48;18.10;99.90
971;DHT22;28939;45.540;-122.632;2022-08-02T11:37:30;18.00;99.90
971;DHT22;28939;45.540;-122.632;2022-08-02T11:40:02;18.10;99.90
971;DHT22;28939;45.540;-122.632;2022-08-02T11:42:47;18.10;99.90
971;DHT22;28939;45.540;-122.632;2022-08-02T11:45:24;18.10;99.90
971;DHT22;28939;45.540;-122.632;2022-08-02T11:47:56;18.00;99.90
971;DHT22;28939;45.540;-122.632;2022-08-02T11:50:27;18.00;99.90
971;DHT22;28939;45.540;-122.632;2022-08-02T11:53:00;18.10;99.90
971;DHT22;28939;45.540;-122.632;2022-08-02T11:55:31;18.10;99.90
971;DHT22;28939;45.540;-122.632;2022-08-02T11:58:03;18.10;99.90
971;DHT22;28939;45.540;-122.632;2022-08-02T12:00:35;18.20;99.90
971;DHT22;28939;45.540;-122.632;2022-08-02T12:03:06;18.10;99.90
971;DHT22;28939;45.540;-122.632;2022-08-02T12:05:37;18.20;99.90
971;DHT22;28939;45.540;-122.632;2022-08-02T12:08:30;18.20;99.90
971;DHT22;28939;45.540;-122.632;2022-08-02T12:11:01;18.30;99.90
971;DHT22;28939;45.540;-122.632;2022-08-02T12:13:42;18.20;99.90
971;DHT22;28939;45.540;-122.632;2022-08-02T12:16:24;18.30;99.90
971;DHT22;28939;45.540;-122.632;2022-08-02T12:19:13;18.20;99.90
971;DHT22;28939;45.540;-122.632;2022-08-02T12:21:48;18.20;99.90
971;DHT22;28939;45.540;-122.632;2022-08-02T12:24:30;18.30;99.90
971;DHT22;28939;45.540;-122.632;2022-08-02T12:27:01;18.20;99.90
971;DHT22;28939;45.540;-122.632;2022-08-02T12:29:33;18.20;99.90
971;DHT22;28939;45.540;-122.632;2022-08-02T12:32:24;18.20;99.90
971;DHT22;28939;45.540;-122.632;2022-08-02T12:35:10;18.20;99.90
971;DHT22;28939;45.540;-122.632;2022-08-02T12:37:52;18.10;99.90
971;DHT22;28939;45.540;-122.632;2022-08-02T12:40:29;18.00;99.90
971;DHT22;28939;45.540;-122.632;2022-08-02T12:43:02;18.00;99.90
971;DHT22;28939;45.540;-122.632;2022-08-02T12:45:44;18.00;99.90
971;DHT22;28939;45.540;-122.632;2022-08-02T12:48:16;17.90;99.90
971;DHT22;28939;45.540;-122.632;2022-08-02T12:51:19;17.90;99.90
971;DHT22;28939;45.540;-122.632;2022-08-02T12:53:51;17.90;99.90
971;DHT22;28939;45.540;-122.632;2022-08-02T12:56:29;17.90;99.90
971;DHT22;28939;45.540;-122.632;2022-08-02T12:59:00;17.90;99.90
971;DHT22;28939;45.540;-122.632;2022-08-02T13:01:31;17.90;99.90
971;DHT22;28939;45.540;-122.632;2022-08-02T13:04:03;17.90;99.90
971;DHT22;28939;45.540;-122.632;2022-08-02T13:06:40;18.00;99.90
971;DHT22;28939;45.540;-122.632;2022-08-02T13:09:14;18.00;99.90
971;DHT22;28939;45.540;-122.632;2022-08-02T13:11:47;18.10;99.90
971;DHT22;28939;45.540;-122.632;2022-08-02T13:14:18;18.10;99.90
971;DHT22;28939;45.540;-122.632;2022-08-02T13:16:49;18.00;99.90
971;DHT22;28939;45.540;-122.632;2022-08-02T13:19:20;18.10;99.90
971;DHT22;28939;45.540;-122.632;2022-08-02T13:21:51;18.10;99.90
971;DHT22;28939;45.540;-122.632;2022-08-02T13:24:38;18.00;99.90
971;DHT22;28939;45.540;-122.632;2022-08-02T13:27:25;18.10;99.90
971;DHT22;28939;45.540;-122.632;2022-08-02T13:29:56;18.10;99.90
971;DHT22;28939;45.540;-122.632;2022-08-02T13:32:28;18.20;99.90
971;DHT22;28939;45.540;-122.632;2022-08-02T13:34:59;18.20;99.90
971;DHT22;28939;45.540;-122.632;2022-08-02T13:37:31;18.20;99.90
971;DHT22;28939;45.540;-122.632;2022-08-02T13:40:08;18.20;99.90
971;DHT22;28939;45.540;-122.632;2022-08-02T13:42:50;18.30;99.90
971;DHT22;28939;45.540;-122.632;2022-08-02T13:45:21;18.30;99.90
971;DHT22;28939;45.540;-122.632;2022-08-02T13:47:52;18.40;99.90
971;DHT22;28939;45.540;-122.632;2022-08-02T13:50:32;18.50;99.90
971;DHT22;28939;45.540;-122.632;2022-08-02T13:53:03;18.50;99.90
971;DHT22;28939;45.540;-122.632;2022-08-02T13:55:34;18.50;99.90
971;DHT22;28939;45.540;-122.632;2022-08-02T13:58:11;18.60;99.90
971;DHT22;28939;45.540;-122.632;2022-08-02T14:00:42;18.60;99.90
971;DHT22;28939;45.540;-122.632;2022-08-02T14:03:13;18.60;99.90
971;DHT22;28939;45.540;-122.632;2022-08-02T14:05:44;18.80;99.90
971;DHT22;28939;45.540;-122.632;2022-08-02T14:08:16;18.90;99.90
971;DHT22;28939;45.540;-122.632;2022-08-02T14:10:48;18.90;99.90
971;DHT22;28939;45.540;-122.632;2022-08-02T14:13:21;19.00;99.90
971;DHT22;28939;45.540;-122.632;2022-08-02T14:15:52;19.10;99.90
971;DHT22;28939;45.540;-122.632;2022-08-02T14:18:23;19.30;99.90
971;DHT22;28939;45.540;-122.632;2022-08-02T14:20:54;19.20;99.90
971;DHT22;28939;45.540;-122.632;2022-08-02T14:23:25;19.30;99.90
971;DHT22;28939;45.540;-122.632;2022-08-02T14:26:17;19.50;99.90
971;DHT22;28939;45.540;-122.632;2022-08-02T14:28:56;19.40;99.90
971;DHT22;28939;45.540;-122.632;2022-08-02T14:31:26;19.50;99.90
971;DHT22;28939;45.540;-122.632;2022-08-02T14:33:57;19.60;99.90
971;DHT22;28939;45.540;-122.632;2022-08-02T14:36:28;19.80;99.90
971;DHT22;28939;45.540;-122.632;2022-08-02T14:38:59;19.90;99.90
971;DHT22;28939;45.540;-122.632;2022-08-02T14:41:30;20.00;99.90
971;DHT22;28939;45.540;-122.632;2022-08-02T14:44:25;20.10;99.90
971;DHT22;28939;45.540;-122.632;2022-08-02T14:46:56;20.20;99.90
971;DHT22;28939;45.540;-122.632;2022-08-02T14:49:27;20.30;99.90
971;DHT22;28939;45.540;-122.632;2022-08-02T14:51:58;20.50;99.90
971;DHT22;28939;45.540;-122.632;2022-08-02T14:54:28;20.40;99.90
971;DHT22;28939;45.540;-122.632;2022-08-02T14:57:01;20.40;99.90
971;DHT22;28939;45.540;-122.632;2022-08-02T14:59:34;20.70;99.90
971;DHT22;28939;45.540;-122.632;2022-08-02T15:02:09;20.80;99.90
971;DHT22;28939;45.540;-122.632;2022-08-02T15:04:41;21.10;99.90
971;DHT22;28939;45.540;-122.632;2022-08-02T15:07:13;21.20;99.90
971;DHT22;28939;45.540;-122.632;2022-08-02T15:09:44;21.60;99.90
971;DHT22;28939;45.540;-122.632;2022-08-02T15:12:15;21.50;99.90
971;DHT22;28939;45.540;-122.632;2022-08-02T15:14:47;22.20;99.90
971;DHT22;28939;45.540;-122.632;2022-08-02T15:17:18;23.00;99.90
971;DHT22;28939;45.540;-122.632;2022-08-02T15:19:49;23.20;99.90
971;DHT22;28939;45.540;-122.632;2022-08-02T15:22:27;23.20;99.90
971;DHT22;28939;45.540;-122.632;2022-08-02T15:24:58;23.20;99.90
971;DHT22;28939;45.540;-122.632;2022-08-02T15:27:29;22.90;99.90
971;DHT22;28939;45.540;-122.632;2022-08-02T15:30:06;22.90;99.90
971;DHT22;28939;45.540;-122.632;2022-08-02T15:32:37;22.90;99.90
971;DHT22;28939;45.540;-122.632;2022-08-02T15:35:20;22.70;99.90
971;DHT22;28939;45.540;-122.632;2022-08-02T15:37:51;22.50;99.90
971;DHT22;28939;45.540;-122.632;2022-08-02T15:40:22;22.50;99.90
971;DHT22;28939;45.540;-122.632;2022-08-02T15:42:53;22.40;99.90
971;DHT22;28939;45.540;-122.632;2022-08-02T15:45:25;22.50;99.90
971;DHT22;28939;45.540;-122.632;2022-08-02T15:47:56;22.60;99.90
971;DHT22;28939;45.540;-122.632;2022-08-02T15:50:27;23.20;99.90
971;DHT22;28939;45.540;-122.632;2022-08-02T15:52:58;24.60;99.90
971;DHT22;28939;45.540;-122.632;2022-08-02T15:55:29;25.70;98.30
971;DHT22;28939;45.540;-122.632;2022-08-02T15:58:19;25.80;96.70
971;DHT22;28939;45.540;-122.632;2022-08-02T16:00:52;25.30;96.80
971;DHT22;28939;45.540;-122.632;2022-08-02T16:03:22;24.90;97.70
971;DHT22;28939;45.540;-122.632;2022-08-02T16:05:53;24.40;98.50
971;DHT22;28939;45.540;-122.632;2022-08-02T16:08:24;24.40;98.30
971;DHT22;28939;45.540;-122.632;2022-08-02T16:10:55;24.70;98.10